Time;durP1;ratioP1;P1;durP2;ratioP2;P2;SDS_P1;SDS_P2;PMS_P1;PMS_P2;Temp;Humidity;BMP_temperature;BMP_pressure;BME280_temperature;BME280_humidity;BME280_pressure;Samples;Min_cycle;Max_cycle;Signal;HPM_P1;HPM_P2
2023/06/28 00:00:20;;;;;;;2.93;0.57;;;;;;;;;;5288991;28;20013;-80
2023/06/28 00:02:52;;;;;;;3.72;0.50;;;;;;;;;;5288202;28;20291;-80
2023/06/28 00:05:23;;;;;;;2.55;0.60;;;;;;;;;;5287714;28;20027;-79
2023/06/28 00:07:54;;;;;;;3.35;0.68;;;;;;;;;;5288356;28;20024;-79
2023/06/28 00:10:25;;;;;;;3.67;0.50;;;;;;;;;;5288478;28;20452;-81
2023/06/28 00:12:57;;;;;;;2.57;0.50;;;;;;;;;;5287836;28;20700;-81
2023/06/28 00:15:28;;;;;;;1.83;0.50;;;;;;;;;;5288495;28;20266;-81
2023/06/28 00:18:02;;;;;;;2.33;0.50;;;;;;;;;;5288465;28;20516;-80
2023/06/28 00:20:34;;;;;;;3.95;0.75;;;;;;;;;;5288068;28;20020;-81
2023/06/28 00:23:05;;;;;;;6.20;1.15;;;;;;;;;;5288631;28;20035;-81
2023/06/28 00:25:36;;;;;;;5.07;1.13;;;;;;;;;;5287738;28;20035;-81
2023/06/28 00:28:08;;;;;;;5.33;0.70;;;;;;;;;;5288388;28;20009;-81
2023/06/28 00:30:39;;;;;;;6.30;1.00;;;;;;;;;;5288335;28;20816;-81
2023/06/28 00:33:10;;;;;;;5.95;1.10;;;;;;;;;;5287578;28;20267;-81
2023/06/28 00:35:41;;;;;;;4.97;0.70;;;;;;;;;;5288093;28;20526;-81
2023/06/28 00:38:12;;;;;;;3.55;0.85;;;;;;;;;;5288555;28;20019;-81
2023/06/28 00:40:44;;;;;;;5.13;1.00;;;;;;;;;;5287106;28;20024;-81
2023/06/28 00:43:15;;;;;;;5.37;1.40;;;;;;;;;;5288510;28;20023;-81
2023/06/28 00:45:46;;;;;;;4.07;0.80;;;;;;;;;;5288049;28;20282;-81
2023/06/28 00:48:18;;;;;;;3.08;0.60;;;;;;;;;;5287699;28;20021;-81
2023/06/28 00:50:49;;;;;;;3.55;0.60;;;;;;;;;;5287699;28;20525;-80
2023/06/28 00:53:21;;;;;;;6.20;0.70;;;;;;;;;;5287875;28;20078;-80
2023/06/28 00:55:53;;;;;;;3.38;0.70;;;;;;;;;;5287799;28;20032;-80
2023/06/28 00:58:25;;;;;;;4.28;0.60;;;;;;;;;;5288557;28;20148;-81
2023/06/28 01:00:56;;;;;;;4.72;0.80;;;;;;;;;;5287542;28;20017;-81
2023/06/28 01:03:28;;;;;;;4.22;0.60;;;;;;;;;;5285484;28;20021;-82
2023/06/28 01:05:59;;;;;;;2.83;0.50;;;;;;;;;;5284628;28;20071;-81
2023/06/28 01:08:30;;;;;;;3.45;0.85;;;;;;;;;;5284198;28;20013;-79
2023/06/28 01:11:02;;;;;;;2.78;0.50;;;;;;;;;;5284849;28;20029;-79
2023/06/28 01:13:34;;;;;;;3.22;0.60;;;;;;;;;;5284585;28;20024;-80
2023/06/28 01:16:05;;;;;;;2.17;0.60;;;;;;;;;;5284053;28;20020;-79
2023/06/28 01:18:37;;;;;;;5.55;0.85;;;;;;;;;;5284700;28;20103;-80
2023/06/28 01:21:09;;;;;;;4.03;0.70;;;;;;;;;;5294752;28;20084;-80
2023/06/28 01:23:40;;;;;;;4.15;0.75;;;;;;;;;;5283556;28;20092;-80
2023/06/28 01:26:12;;;;;;;4.05;0.60;;;;;;;;;;5284998;28;20458;-79
2023/06/28 01:28:44;;;;;;;3.47;0.60;;;;;;;;;;5283301;28;20055;-79
2023/06/28 01:31:15;;;;;;;3.35;0.60;;;;;;;;;;5284563;28;20028;-79
2023/06/28 01:33:48;;;;;;;4.68;1.00;;;;;;;;;;5284208;28;20518;-80
2023/06/28 01:36:19;;;;;;;3.47;0.60;;;;;;;;;;5284074;28;20089;-80
2023/06/28 01:38:51;;;;;;;1.97;0.47;;;;;;;;;;5284007;28;20012;-80
2023/06/28 01:41:23;;;;;;;4.88;0.60;;;;;;;;;;5284351;28;20342;-81
2023/06/28 01:43:54;;;;;;;5.20;2.38;;;;;;;;;;5283372;28;20020;-80
2023/06/28 01:46:26;;;;;;;7.55;3.70;;;;;;;;;;5284224;28;20437;-80
2023/06/28 01:48:57;;;;;;;6.38;3.72;;;;;;;;;;5283980;28;20020;-80
2023/06/28 01:51:28;;;;;;;7.00;2.20;;;;;;;;;;5283067;28;20492;-80
2023/06/28 01:54:00;;;;;;;4.72;1.23;;;;;;;;;;5283779;28;20056;-80
2023/06/28 01:56:32;;;;;;;4.40;1.20;;;;;;;;;;5284302;28;20056;-80
2023/06/28 01:59:03;;;;;;;3.88;1.30;;;;;;;;;;5283215;28;20015;-80
2023/06/28 02:01:34;;;;;;;6.22;1.40;;;;;;;;;;5284011;28;20024;-80
2023/06/28 02:04:05;;;;;;;4.68;1.33;;;;;;;;;;5282929;28;20009;-81
2023/06/28 02:06:40;;;;;;;6.90;1.35;;;;;;;;;;5283502;28;20068;-80
2023/06/28 02:09:12;;;;;;;5.60;1.48;;;;;;;;;;5284105;28;20077;-81
2023/06/28 02:11:43;;;;;;;3.28;1.20;;;;;;;;;;5282491;28;20024;-80
2023/06/28 02:14:14;;;;;;;4.55;1.35;;;;;;;;;;5283941;28;20019;-81
2023/06/28 02:16:45;;;;;;;5.07;1.88;;;;;;;;;;5282929;28;20384;-81
2023/06/28 02:19:18;;;;;;;4.15;1.70;;;;;;;;;;5282911;28;20047;-80
2023/06/28 02:21:50;;;;;;;6.97;2.28;;;;;;;;;;5283184;28;20031;-81
2023/06/28 02:24:21;;;;;;;6.57;2.85;;;;;;;;;;5283630;28;20012;-81
2023/06/28 02:26:53;;;;;;;6.10;2.08;;;;;;;;;;5282176;28;20029;-81
2023/06/28 02:29:24;;;;;;;3.55;1.40;;;;;;;;;;5283012;28;20074;-80
2023/06/28 02:31:56;;;;;;;4.78;1.45;;;;;;;;;;5282439;28;20320;-80
2023/06/28 02:34:27;;;;;;;6.30;1.90;;;;;;;;;;5283148;28;20027;-80
2023/06/28 02:36:59;;;;;;;4.75;1.20;;;;;;;;;;5283053;28;20028;-80
2023/06/28 02:39:30;;;;;;;3.40;1.10;;;;;;;;;;5282219;28;20012;-80
2023/06/28 02:42:01;;;;;;;3.83;0.90;;;;;;;;;;5282612;28;20032;-80
2023/06/28 02:44:34;;;;;;;4.53;1.10;;;;;;;;;;5282927;28;20384;-80
2023/06/28 02:47:05;;;;;;;6.68;1.10;;;;;;;;;;5281992;28;20033;-79
2023/06/28 02:49:36;;;;;;;3.85;0.80;;;;;;;;;;5282774;28;20020;-79
2023/06/28 02:52:08;;;;;;;4.10;1.00;;;;;;;;;;5282460;28;20068;-78
2023/06/28 02:54:39;;;;;;;4.57;1.02;;;;;;;;;;5281618;28;20380;-78
2023/06/28 02:57:10;;;;;;;7.00;1.20;;;;;;;;;;5282969;28;20009;-79
2023/06/28 02:59:41;;;;;;;4.78;1.45;;;;;;;;;;5282397;28;20020;-78
2023/06/28 03:02:14;;;;;;;3.67;1.05;;;;;;;;;;5282067;28;20177;-78
2023/06/28 03:04:45;;;;;;;7.30;1.30;;;;;;;;;;5281898;28;20254;-78
2023/06/28 03:07:17;;;;;;;7.15;1.10;;;;;;;;;;5281801;28;20029;-79
2023/06/28 03:09:49;;;;;;;6.93;1.20;;;;;;;;;;5282519;28;20047;-79
2023/06/28 03:12:20;;;;;;;4.18;1.45;;;;;;;;;;5282751;28;20020;-78
2023/06/28 03:14:51;;;;;;;4.00;1.23;;;;;;;;;;5281264;28;20019;-78
2023/06/28 03:17:22;;;;;;;5.55;1.60;;;;;;;;;;5282349;28;20028;-78
2023/06/28 03:19:53;;;;;;;6.63;1.63;;;;;;;;;;5282205;28;20012;-78
2023/06/28 03:22:25;;;;;;;6.68;1.30;;;;;;;;;;5281517;28;20274;-78
2023/06/28 03:24:56;;;;;;;6.88;1.58;;;;;;;;;;5282258;28;20078;-78
2023/06/28 03:27:27;;;;;;;6.03;1.35;;;;;;;;;;5281451;28;20059;-78
2023/06/28 03:29:58;;;;;;;7.05;1.50;;;;;;;;;;5281129;28;20017;-78
2023/06/28 03:32:29;;;;;;;6.28;1.67;;;;;;;;;;5282209;28;20485;-78
2023/06/28 03:35:00;;;;;;;5.27;1.57;;;;;;;;;;5282070;28;20017;-78
2023/06/28 03:37:32;;;;;;;5.63;1.38;;;;;;;;;;5281574;28;20271;-78
2023/06/28 03:40:04;;;;;;;6.07;1.17;;;;;;;;;;5282159;28;20371;-78
2023/06/28 03:42:35;;;;;;;6.32;1.40;;;;;;;;;;5281358;28;20059;-78
2023/06/28 03:45:07;;;;;;;5.03;1.23;;;;;;;;;;5281933;28;20056;-77
2023/06/28 03:47:39;;;;;;;5.38;1.13;;;;;;;;;;5281907;28;20287;-78
2023/06/28 03:50:11;;;;;;;5.60;1.10;;;;;;;;;;5281530;28;20016;-78
2023/06/28 03:52:42;;;;;;;4.95;1.50;;;;;;;;;;5281110;28;20873;-78
2023/06/28 03:55:16;;;;;;;4.88;1.40;;;;;;;;;;5282408;28;20028;-79
2023/06/28 03:57:47;;;;;;;4.75;1.15;;;;;;;;;;5288118;28;20035;-77
2023/06/28 04:00:18;;;;;;;7.40;1.50;;;;;;;;;;5292329;28;20024;-78
2023/06/28 04:02:50;;;;;;;5.95;1.50;;;;;;;;;;5281831;28;20275;-78
2023/06/28 04:05:21;;;;;;;6.40;1.30;;;;;;;;;;5281561;28;20013;-79
2023/06/28 04:07:57;;;;;;;6.77;1.87;;;;;;;;;;5281877;28;20290;-79
2023/06/28 04:10:29;;;;;;;5.15;1.38;;;;;;;;;;5281606;28;20618;-79
2023/06/28 04:13:00;;;;;;;7.47;2.10;;;;;;;;;;5281467;28;20028;-79
2023/06/28 04:15:31;;;;;;;6.10;1.80;;;;;;;;;;5281482;28;20028;-79
2023/06/28 04:18:02;;;;;;;7.83;1.70;;;;;;;;;;5280404;28;20715;-78
2023/06/28 04:20:33;;;;;;;4.35;1.83;;;;;;;;;;5281681;28;20259;-80
2023/06/28 04:23:05;;;;;;;7.45;2.40;;;;;;;;;;5281402;28;20043;-79
2023/06/28 04:25:37;;;;;;;6.50;1.90;;;;;;;;;;5280921;28;20474;-79
2023/06/28 04:28:09;;;;;;;5.15;1.90;;;;;;;;;;5281496;28;20025;-79
2023/06/28 04:30:40;;;;;;;6.93;1.67;;;;;;;;;;5281331;28;20100;-79
2023/06/28 04:33:14;;;;;;;4.75;2.03;;;;;;;;;;5280897;28;20024;-78
2023/06/28 04:35:46;;;;;;;4.07;1.58;;;;;;;;;;5281022;28;20042;-79
2023/06/28 04:38:19;;;;;;;5.05;1.50;;;;;;;;;;5283259;28;20447;-79
2023/06/28 04:40:50;;;;;;;4.68;1.55;;;;;;;;;;5284613;28;20379;-79
2023/06/28 04:43:21;;;;;;;5.40;1.80;;;;;;;;;;5285608;28;20020;-79
2023/06/28 04:45:55;;;;;;;5.87;2.00;;;;;;;;;;5283835;28;20278;-79
2023/06/28 04:48:26;;;;;;;4.85;1.05;;;;;;;;;;5285031;28;20269;-79
2023/06/28 04:50:58;;;;;;;5.00;1.40;;;;;;;;;;5284636;28;20131;-79
2023/06/28 04:53:29;;;;;;;6.20;1.73;;;;;;;;;;5284418;28;20742;-79
2023/06/28 04:56:00;;;;;;;11.70;1.80;;;;;;;;;;5284977;28;20486;-79
2023/06/28 04:58:33;;;;;;;3.47;1.35;;;;;;;;;;5285076;28;20024;-78
2023/06/28 05:01:08;;;;;;;7.22;1.90;;;;;;;;;;5284145;28;20021;-78
2023/06/28 05:03:39;;;;;;;6.88;1.75;;;;;;;;;;5284614;28;20028;-78
2023/06/28 05:06:10;;;;;;;5.72;2.00;;;;;;;;;;5284918;28;20109;-78
2023/06/28 05:08:41;;;;;;;6.90;1.95;;;;;;;;;;5283927;28;20108;-78
2023/06/28 05:11:13;;;;;;;6.30;1.65;;;;;;;;;;5285203;28;20024;-79
2023/06/28 05:13:44;;;;;;;8.60;2.30;;;;;;;;;;5283813;28;20532;-79
2023/06/28 05:16:15;;;;;;;7.35;1.88;;;;;;;;;;5285133;28;20267;-79
2023/06/28 05:18:46;;;;;;;5.38;1.60;;;;;;;;;;5284580;28;20012;-79
2023/06/28 05:21:17;;;;;;;4.15;1.83;;;;;;;;;;5284535;28;20032;-80
2023/06/28 05:23:49;;;;;;;6.93;1.90;;;;;;;;;;5284227;28;20020;-78
2023/06/28 05:26:20;;;;;;;4.28;1.80;;;;;;;;;;5284938;28;20381;-79
2023/06/28 05:28:51;;;;;;;5.95;2.08;;;;;;;;;;5283981;28;20069;-79
2023/06/28 05:31:22;;;;;;;4.33;1.80;;;;;;;;;;5284986;28;20028;-79
2023/06/28 05:33:54;;;;;;;6.40;2.27;;;;;;;;;;5284573;28;20255;-79
2023/06/28 05:36:25;;;;;;;4.45;2.22;;;;;;;;;;5283870;28;20274;-79
2023/06/28 05:38:56;;;;;;;4.15;2.13;;;;;;;;;;5284867;28;20463;-79
2023/06/28 05:41:28;;;;;;;4.82;1.90;;;;;;;;;;5284399;28;20162;-79
2023/06/28 05:43:59;;;;;;;6.90;2.47;;;;;;;;;;5283364;28;20021;-77
2023/06/28 05:46:30;;;;;;;7.15;3.20;;;;;;;;;;5284127;28;20371;-78
2023/06/28 05:49:06;;;;;;;7.65;2.30;;;;;;;;;;5283087;28;20024;-78
2023/06/28 05:51:37;;;;;;;5.70;2.20;;;;;;;;;;5283447;28;20052;-78
2023/06/28 05:54:08;;;;;;;4.18;1.80;;;;;;;;;;5284140;28;20439;-79
2023/06/28 05:56:40;;;;;;;6.07;2.72;;;;;;;;;;5283283;28;20052;-78
2023/06/28 05:59:11;;;;;;;4.33;1.83;;;;;;;;;;5284283;28;20023;-78
2023/06/28 06:01:42;;;;;;;5.97;2.20;;;;;;;;;;5283489;28;20259;-78
2023/06/28 06:04:13;;;;;;;5.60;2.20;;;;;;;;;;5283254;28;20028;-79
2023/06/28 06:06:44;;;;;;;6.30;2.05;;;;;;;;;;5283586;28;20471;-79
2023/06/28 06:09:16;;;;;;;5.45;2.38;;;;;;;;;;5283957;28;20016;-79
2023/06/28 06:11:47;;;;;;;5.82;2.05;;;;;;;;;;5282752;28;20399;-80
2023/06/28 06:14:18;;;;;;;9.55;2.60;;;;;;;;;;5284027;28;20020;-79
2023/06/28 06:16:50;;;;;;;5.90;2.70;;;;;;;;;;5282633;28;20118;-80
2023/06/28 06:19:21;;;;;;;6.05;2.55;;;;;;;;;;5283817;28;20017;-78
2023/06/28 06:21:52;;;;;;;7.60;3.00;;;;;;;;;;5283133;28;20012;-78
2023/06/28 06:24:24;;;;;;;8.00;2.85;;;;;;;;;;5282972;28;20523;-79
2023/06/28 06:26:55;;;;;;;5.10;2.70;;;;;;;;;;5283395;28;20100;-79
2023/06/28 06:29:26;;;;;;;7.32;2.60;;;;;;;;;;5283549;28;20048;-79
2023/06/28 06:31:57;;;;;;;5.65;2.65;;;;;;;;;;5282448;28;20062;-80
2023/06/28 06:34:29;;;;;;;6.68;3.08;;;;;;;;;;5283939;28;20095;-78
2023/06/28 06:37:00;;;;;;;6.17;2.73;;;;;;;;;;5285896;28;20095;-80
2023/06/28 06:39:32;;;;;;;7.38;2.58;;;;;;;;;;5291817;28;20764;-78
2023/06/28 06:42:03;;;;;;;5.40;2.67;;;;;;;;;;5284331;28;20009;-78
2023/06/28 06:44:35;;;;;;;5.82;2.55;;;;;;;;;;5282900;28;20016;-78
2023/06/28 06:47:06;;;;;;;6.10;2.70;;;;;;;;;;5281775;28;20056;-78
2023/06/28 06:49:38;;;;;;;5.53;2.90;;;;;;;;;;5281307;28;20424;-78
2023/06/28 06:52:09;;;;;;;4.93;2.30;;;;;;;;;;5281401;28;20041;-78
2023/06/28 06:54:40;;;;;;;5.93;2.67;;;;;;;;;;5282431;28;20036;-80
2023/06/28 06:57:13;;;;;;;3.47;2.60;;;;;;;;;;5282813;28;20111;-78
2023/06/28 06:59:45;;;;;;;8.95;2.97;;;;;;;;;;5281137;28;20096;-78
2023/06/28 07:02:16;;;;;;;6.47;2.97;;;;;;;;;;5281276;28;20104;-77
2023/06/28 07:04:48;;;;;;;4.28;2.40;;;;;;;;;;5281924;28;20021;-77
2023/06/28 07:07:19;;;;;;;8.85;2.72;;;;;;;;;;5281843;28;20367;-77
2023/06/28 07:09:50;;;;;;;6.20;3.27;;;;;;;;;;5282290;28;20352;-79
2023/06/28 07:12:22;;;;;;;4.93;2.50;;;;;;;;;;5282626;28;20290;-79
2023/06/28 07:14:53;;;;;;;5.15;2.72;;;;;;;;;;5281056;28;20013;-79
2023/06/28 07:17:24;;;;;;;6.85;2.70;;;;;;;;;;5282393;28;20017;-79
2023/06/28 07:19:55;;;;;;;7.72;2.83;;;;;;;;;;5282507;28;20070;-81
2023/06/28 07:22:28;;;;;;;5.70;2.13;;;;;;;;;;5280717;28;20099;-78
2023/06/28 07:25:02;;;;;;;5.50;2.10;;;;;;;;;;5272972;28;20816;-80
2023/06/28 07:27:34;;;;;;;5.85;2.22;;;;;;;;;;5278946;28;20483;-81
2023/06/28 07:30:06;;;;;;;5.60;1.65;;;;;;;;;;5282005;28;20021;-81
2023/06/28 07:32:38;;;;;;;5.28;2.08;;;;;;;;;;5282091;28;20024;-80
2023/06/28 07:35:09;;;;;;;6.78;1.98;;;;;;;;;;5281416;28;20025;-75
2023/06/28 07:37:40;;;;;;;4.90;1.63;;;;;;;;;;5282081;28;20025;-79
2023/06/28 07:40:13;;;;;;;7.18;2.80;;;;;;;;;;5282394;28;20367;-80
2023/06/28 07:42:45;;;;;;;7.70;2.50;;;;;;;;;;5281329;28;20020;-81
2023/06/28 07:45:16;;;;;;;5.23;2.00;;;;;;;;;;5282473;28;20016;-80
2023/06/28 07:47:47;;;;;;;5.55;1.75;;;;;;;;;;5281588;28;20293;-81
2023/06/28 07:50:20;;;;;;;5.20;1.70;;;;;;;;;;5281453;28;20146;-84
2023/06/28 07:52:52;;;;;;;9.32;2.35;;;;;;;;;;5281501;28;20059;-81
2023/06/28 07:55:23;;;;;;;5.30;2.00;;;;;;;;;;5281622;28;20020;-80
2023/06/28 07:57:55;;;;;;;4.68;1.80;;;;;;;;;;5281715;28;20114;-81
2023/06/28 08:00:26;;;;;;;9.48;1.95;;;;;;;;;;5281472;28;20012;-79
2023/06/28 08:02:58;;;;;;;5.28;1.80;;;;;;;;;;5275583;28;20020;-81
2023/06/28 08:05:29;;;;;;;4.05;1.70;;;;;;;;;;5280893;28;20020;-82
2023/06/28 08:08:00;;;;;;;7.97;1.50;;;;;;;;;;5281323;28;20029;-82
2023/06/28 08:10:32;;;;;;;7.90;1.88;;;;;;;;;;5280625;28;20653;-80
2023/06/28 08:13:03;;;;;;;4.57;1.67;;;;;;;;;;5278586;28;20025;-81
2023/06/28 08:15:36;;;;;;;5.07;1.55;;;;;;;;;;5265052;28;20492;-79
2023/06/28 08:18:09;;;;;;;5.25;2.05;;;;;;;;;;5285408;28;20055;-81
2023/06/28 08:20:41;;;;;;;6.05;1.60;;;;;;;;;;5285438;28;20349;-81
2023/06/28 08:23:12;;;;;;;5.28;1.50;;;;;;;;;;5285815;28;20021;-81
2023/06/28 08:25:43;;;;;;;5.13;2.10;;;;;;;;;;5284433;28;20032;-81
2023/06/28 08:28:14;;;;;;;4.72;1.30;;;;;;;;;;5285587;28;20279;-82
2023/06/28 08:30:45;;;;;;;4.03;1.53;;;;;;;;;;5284319;28;20017;-81
2023/06/28 08:33:17;;;;;;;8.35;1.95;;;;;;;;;;5285587;28;20271;-81
2023/06/28 08:35:48;;;;;;;5.70;1.67;;;;;;;;;;5285220;28;20012;-81
2023/06/28 08:38:19;;;;;;;5.38;1.80;;;;;;;;;;5285036;28;20035;-81
2023/06/28 08:40:51;;;;;;;4.93;1.50;;;;;;;;;;5285344;28;20095;-81
2023/06/28 08:43:23;;;;;;;5.75;1.40;;;;;;;;;;5285593;28;20020;-82
2023/06/28 08:45:55;;;;;;;7.85;1.90;;;;;;;;;;5283880;28;20399;-82
2023/06/28 08:48:26;;;;;;;6.32;1.73;;;;;;;;;;5285320;28;20013;-82
2023/06/28 08:50:57;;;;;;;6.63;1.95;;;;;;;;;;5285170;28;20676;-82
2023/06/28 08:53:29;;;;;;;6.38;1.73;;;;;;;;;;5284742;28;20016;-82
2023/06/28 08:56:01;;;;;;;4.65;1.77;;;;;;;;;;5285848;28;20490;-82
2023/06/28 08:58:33;;;;;;;6.03;2.05;;;;;;;;;;5285528;28;20535;-82
2023/06/28 09:01:05;;;;;;;4.68;1.52;;;;;;;;;;5284990;28;20012;-82
2023/06/28 09:03:40;;;;;;;6.43;1.95;;;;;;;;;;5285684;28;20362;-82
2023/06/28 09:06:11;;;;;;;4.88;1.73;;;;;;;;;;5285436;28;20035;-82
2023/06/28 09:08:43;;;;;;;7.35;1.98;;;;;;;;;;5285202;28;20016;-83
2023/06/28 09:11:15;;;;;;;5.35;1.52;;;;;;;;;;5285369;28;20016;-82
2023/06/28 09:13:47;;;;;;;5.82;1.40;;;;;;;;;;5284669;28;20016;-83
2023/06/28 09:16:19;;;;;;;6.07;1.65;;;;;;;;;;5286900;28;20024;-81
2023/06/28 09:18:50;;;;;;;5.00;1.55;;;;;;;;;;5299231;28;20379;-81
2023/06/28 09:21:25;;;;;;;5.30;1.40;;;;;;;;;;5285638;28;20478;-82
2023/06/28 09:23:57;;;;;;;5.72;1.40;;;;;;;;;;5284528;28;20285;-82
2023/06/28 09:26:31;;;;;;;8.90;2.08;;;;;;;;;;5284222;28;20028;-82
2023/06/28 09:29:12;;;;;;;3.55;1.25;;;;;;;;;;5284519;28;20031;-83
2023/06/28 09:31:46;;;;;;;6.28;1.40;;;;;;;;;;5284593;28;20024;-83
2023/06/28 09:34:22;;;;;;;6.35;1.35;;;;;;;;;;5280235;28;20099;-82
2023/06/28 09:36:54;;;;;;;5.15;1.08;;;;;;;;;;5284166;28;20467;-82
2023/06/28 09:39:26;;;;;;;4.35;1.10;;;;;;;;;;5284424;28;20433;-83
2023/06/28 09:41:57;;;;;;;5.25;1.05;;;;;;;;;;5283685;28;20096;-82
2023/06/28 09:44:29;;;;;;;7.00;1.27;;;;;;;;;;5284682;28;20016;-83
2023/06/28 09:47:01;;;;;;;4.53;1.40;;;;;;;;;;5284183;28;20090;-83
2023/06/28 09:49:33;;;;;;;5.60;1.30;;;;;;;;;;5283558;28;20036;-84
2023/06/28 09:52:06;;;;;;;4.57;1.10;;;;;;;;;;5284136;28;20110;-82
2023/06/28 09:54:44;;;;;;;6.85;1.10;;;;;;;;;;5284338;28;20483;-82
2023/06/28 09:57:16;;;;;;;7.43;1.25;;;;;;;;;;5283641;28;20020;-82
2023/06/28 09:59:48;;;;;;;4.82;1.40;;;;;;;;;;5283316;28;20020;-83
2023/06/28 10:02:20;;;;;;;5.13;1.15;;;;;;;;;;5283494;28;20025;-82
2023/06/28 10:04:52;;;;;;;5.05;0.98;;;;;;;;;;5282416;28;20489;-83
2023/06/28 10:07:24;;;;;;;4.53;0.80;;;;;;;;;;5282662;28;20103;-80
2023/06/28 10:09:55;;;;;;;3.88;1.15;;;;;;;;;;5281531;28;20027;-80
2023/06/28 10:12:28;;;;;;;6.00;1.13;;;;;;;;;;5283694;28;20463;-79
2023/06/28 10:15:02;;;;;;;4.38;0.73;;;;;;;;;;5283812;28;20032;-79
2023/06/28 10:17:34;;;;;;;6.60;0.93;;;;;;;;;;5282667;28;20426;-79
2023/06/28 10:20:06;;;;;;;7.70;1.30;;;;;;;;;;5283374;28;20062;-79
2023/06/28 10:22:39;;;;;;;2.63;0.77;;;;;;;;;;5283246;28;20117;-79
2023/06/28 10:25:10;;;;;;;4.70;0.80;;;;;;;;;;5282849;28;20016;-79
2023/06/28 10:27:42;;;;;;;6.82;0.90;;;;;;;;;;5283082;28;20032;-79
2023/06/28 10:30:13;;;;;;;4.63;0.93;;;;;;;;;;5282640;28;20020;-78
2023/06/28 10:32:45;;;;;;;2.92;0.95;;;;;;;;;;5282591;28;20031;-79
2023/06/28 10:35:16;;;;;;;4.20;0.85;;;;;;;;;;5283403;28;20471;-79
2023/06/28 10:37:48;;;;;;;4.95;0.93;;;;;;;;;;5282289;28;20042;-80
2023/06/28 10:40:20;;;;;;;5.90;0.90;;;;;;;;;;5283242;28;20021;-79
2023/06/28 10:42:51;;;;;;;6.00;0.85;;;;;;;;;;5282390;28;20345;-82
2023/06/28 10:45:35;;;;;;;3.58;0.80;;;;;;;;;;5282268;28;20471;-79
2023/06/28 10:48:07;;;;;;;6.25;0.82;;;;;;;;;;5282308;28;20032;-78
2023/06/28 10:50:39;;;;;;;4.55;1.10;;;;;;;;;;5282805;28;20371;-78
2023/06/28 10:53:20;;;;;;;4.38;1.20;;;;;;;;;;5282292;28;20100;-79
2023/06/28 10:56:05;;;;;;;7.00;1.10;;;;;;;;;;5282389;28;20017;-79
2023/06/28 10:58:40;;;;;;;4.25;1.00;;;;;;;;;;5281949;28;20020;-78
2023/06/28 11:01:13;;;;;;;4.93;1.30;;;;;;;;;;5283014;28;20475;-77
2023/06/28 11:03:44;;;;;;;5.95;1.15;;;;;;;;;;5282380;28;20063;-78
2023/06/28 11:06:15;;;;;;;3.60;1.17;;;;;;;;;;5281716;28;20117;-74
2023/06/28 11:08:48;;;;;;;5.38;0.90;;;;;;;;;;5282274;28;20013;-78
2023/06/28 11:11:22;;;;;;;5.00;1.27;;;;;;;;;;5282768;28;20077;-77
2023/06/28 11:13:53;;;;;;;4.50;1.30;;;;;;;;;;5281063;28;20016;-77
2023/06/28 11:16:24;;;;;;;7.32;1.70;;;;;;;;;;5282076;28;20451;-78
2023/06/28 11:19:12;;;;;;;3.37;1.23;;;;;;;;;;5281886;28;20013;-78
2023/06/28 11:21:49;;;;;;;5.55;1.60;;;;;;;;;;5281316;28;20273;-78
2023/06/28 11:24:23;;;;;;;7.30;1.90;;;;;;;;;;5282421;28;20047;-77
2023/06/28 11:26:55;;;;;;;6.65;1.40;;;;;;;;;;5281148;28;20036;-76
2023/06/28 11:29:26;;;;;;;5.05;1.48;;;;;;;;;;5282179;28;20126;-77
2023/06/28 11:31:58;;;;;;;6.05;1.67;;;;;;;;;;5281751;28;20034;-77
2023/06/28 11:34:30;;;;;;;4.55;1.33;;;;;;;;;;5281486;28;20103;-77
2023/06/28 11:37:02;;;;;;;5.80;1.63;;;;;;;;;;5281823;28;20023;-78
2023/06/28 11:39:33;;;;;;;7.03;1.30;;;;;;;;;;5277632;28;20020;-77
2023/06/28 11:42:04;;;;;;;4.13;1.52;;;;;;;;;;5280662;28;20462;-77
2023/06/28 11:44:48;;;;;;;4.53;1.90;;;;;;;;;;5281565;28;20012;-77
2023/06/28 11:47:23;;;;;;;5.32;1.80;;;;;;;;;;5281057;28;20525;-78
2023/06/28 11:49:55;;;;;;;6.28;1.80;;;;;;;;;;5281468;28;20078;-77
2023/06/28 11:52:26;;;;;;;6.20;2.13;;;;;;;;;;5281020;28;20454;-77
2023/06/28 11:54:57;;;;;;;4.78;1.95;;;;;;;;;;5280576;28;20013;-77
2023/06/28 11:57:28;;;;;;;5.63;1.70;;;;;;;;;;5281759;28;20024;-77
2023/06/28 12:00:00;;;;;;;6.45;2.20;;;;;;;;;;5281980;28;20028;-77
2023/06/28 12:02:31;;;;;;;5.88;1.42;;;;;;;;;;5288277;28;20095;-77
2023/06/28 12:05:05;;;;;;;4.60;1.50;;;;;;;;;;5285328;28;20012;-77
2023/06/28 12:07:36;;;;;;;6.45;2.30;;;;;;;;;;5281493;28;20471;-78
2023/06/28 12:10:09;;;;;;;9.00;3.27;;;;;;;;;;5279961;28;20025;-77
2023/06/28 12:12:41;;;;;;;6.65;3.30;;;;;;;;;;5280773;28;20267;-77
2023/06/28 12:15:13;;;;;;;8.82;3.55;;;;;;;;;;5281849;28;20027;-77
2023/06/28 12:17:44;;;;;;;7.30;4.30;;;;;;;;;;5280244;28;20009;-78
2023/06/28 12:20:15;;;;;;;9.68;3.97;;;;;;;;;;5281241;28;20028;-77
2023/06/28 12:22:46;;;;;;;11.23;6.33;;;;;;;;;;5280149;28;20341;-77
2023/06/28 12:25:24;;;;;;;10.52;5.78;;;;;;;;;;5281420;28;20271;-77
2023/06/28 12:28:02;;;;;;;8.37;4.73;;;;;;;;;;5280957;28;20068;-78
2023/06/28 12:30:33;;;;;;;6.85;4.70;;;;;;;;;;5280425;28;20107;-78
2023/06/28 12:33:06;;;;;;;10.05;4.63;;;;;;;;;;5281114;28;20103;-78
2023/06/28 12:35:43;;;;;;;7.80;4.75;;;;;;;;;;5280721;28;20051;-75
2023/06/28 12:38:17;;;;;;;8.27;5.18;;;;;;;;;;5280412;28;20032;-79
2023/06/28 12:40:48;;;;;;;8.77;4.50;;;;;;;;;;5280554;28;20028;-77
2023/06/28 12:43:23;;;;;;;10.13;5.37;;;;;;;;;;5281609;28;20387;-76
2023/06/28 12:45:55;;;;;;;8.10;5.25;;;;;;;;;;5280371;28;20629;-77
2023/06/28 12:48:26;;;;;;;8.57;5.43;;;;;;;;;;5281287;28;20078;-77
2023/06/28 12:50:58;;;;;;;11.27;5.72;;;;;;;;;;5280110;28;20044;-77
2023/06/28 12:53:29;;;;;;;9.55;5.40;;;;;;;;;;5281222;28;20107;-76
2023/06/28 12:56:00;;;;;;;8.73;5.57;;;;;;;;;;5280811;28;20044;-76
2023/06/28 12:58:32;;;;;;;9.57;6.00;;;;;;;;;;5280526;28;20860;-77
2023/06/28 13:01:03;;;;;;;9.98;7.60;;;;;;;;;;5284636;28;20009;-76
2023/06/28 13:03:34;;;;;;;10.37;7.03;;;;;;;;;;5284287;28;20497;-76
2023/06/28 13:06:06;;;;;;;9.85;7.30;;;;;;;;;;5283842;28;20370;-76
2023/06/28 13:08:38;;;;;;;11.05;7.40;;;;;;;;;;5284665;28;20428;-76
2023/06/28 13:11:11;;;;;;;10.53;7.17;;;;;;;;;;5284456;28;20103;-76
2023/06/28 13:13:42;;;;;;;9.70;6.63;;;;;;;;;;5283992;28;20267;-77
2023/06/28 13:16:13;;;;;;;11.82;7.72;;;;;;;;;;5285072;28;20028;-76
2023/06/28 13:18:45;;;;;;;11.87;7.17;;;;;;;;;;5284374;28;20066;-77
2023/06/28 13:21:17;;;;;;;12.75;8.15;;;;;;;;;;5282413;28;20024;-75
2023/06/28 13:23:49;;;;;;;12.98;8.63;;;;;;;;;;5284170;28;20017;-78
2023/06/28 13:26:20;;;;;;;12.30;8.93;;;;;;;;;;5284243;28;20479;-78
2023/06/28 13:28:51;;;;;;;11.40;8.40;;;;;;;;;;5284123;28;20012;-75
2023/06/28 13:31:22;;;;;;;13.43;9.57;;;;;;;;;;5284843;28;20259;-78
2023/06/28 13:33:53;;;;;;;9.65;7.63;;;;;;;;;;5283520;28;20098;-77
2023/06/28 13:36:25;;;;;;;13.63;9.33;;;;;;;;;;5284196;28;20020;-76
2023/06/28 13:38:56;;;;;;;15.00;8.63;;;;;;;;;;5284137;28;20270;-77
2023/06/28 13:41:27;;;;;;;12.48;8.55;;;;;;;;;;5283619;28;20424;-76
2023/06/28 13:43:59;;;;;;;13.20;9.40;;;;;;;;;;5283744;28;20021;-76
2023/06/28 13:46:30;;;;;;;12.13;8.70;;;;;;;;;;5280125;28;20024;-77
2023/06/28 13:49:01;;;;;;;12.82;9.70;;;;;;;;;;5283163;28;20028;-77
2023/06/28 13:51:32;;;;;;;13.75;9.65;;;;;;;;;;5283162;28;20118;-77
2023/06/28 13:54:03;;;;;;;14.30;9.02;;;;;;;;;;5282801;28;20451;-76
2023/06/28 13:56:35;;;;;;;12.63;9.43;;;;;;;;;;5283835;28;20038;-76
2023/06/28 13:59:06;;;;;;;13.53;8.90;;;;;;;;;;5283194;28;20262;-76
2023/06/28 14:01:37;;;;;;;12.97;9.27;;;;;;;;;;5279022;28;20629;-77
2023/06/28 14:04:09;;;;;;;16.03;9.63;;;;;;;;;;5283654;28;20258;-76
2023/06/28 14:06:41;;;;;;;17.70;9.95;;;;;;;;;;5281984;28;20287;-76
2023/06/28 14:09:12;;;;;;;14.05;10.25;;;;;;;;;;5282964;28;20036;-77
2023/06/28 14:11:43;;;;;;;12.98;8.93;;;;;;;;;;5281889;28;20028;-79
2023/06/28 14:14:14;;;;;;;13.70;9.75;;;;;;;;;;5283494;28;20119;-77
2023/06/28 14:16:46;;;;;;;13.17;10.50;;;;;;;;;;5282380;28;20024;-77
2023/06/28 14:19:17;;;;;;;15.47;12.07;;;;;;;;;;5283593;28;20267;-77
2023/06/28 14:21:48;;;;;;;19.43;12.20;;;;;;;;;;5283296;28;20024;-77
2023/06/28 14:24:19;;;;;;;13.37;11.97;;;;;;;;;;5282785;28;20302;-77
2023/06/28 14:26:52;;;;;;;19.85;14.07;;;;;;;;;;5282713;28;20298;-77
2023/06/28 14:29:23;;;;;;;18.45;13.40;;;;;;;;;;5282415;28;20084;-77
2023/06/28 14:31:55;;;;;;;18.70;14.67;;;;;;;;;;5282975;28;20115;-77
2023/06/28 14:34:26;;;;;;;17.60;14.30;;;;;;;;;;5283065;28;20259;-77
2023/06/28 14:36:57;;;;;;;18.47;13.83;;;;;;;;;;5282248;28;20297;-77
2023/06/28 14:39:28;;;;;;;17.70;14.53;;;;;;;;;;5282808;28;20265;-76
2023/06/28 14:41:59;;;;;;;16.52;13.38;;;;;;;;;;5282620;28;20611;-76
2023/06/28 14:44:31;;;;;;;21.07;14.53;;;;;;;;;;5283045;28;20514;-77
2023/06/28 14:47:03;;;;;;;23.33;14.33;;;;;;;;;;5284287;28;20029;-76
2023/06/28 14:49:34;;;;;;;22.75;14.60;;;;;;;;;;5286073;28;20020;-76
2023/06/28 14:52:06;;;;;;;20.67;15.30;;;;;;;;;;5282372;28;20048;-76
2023/06/28 14:54:37;;;;;;;23.02;15.18;;;;;;;;;;5282834;28;20262;-77
2023/06/28 14:57:10;;;;;;;20.53;15.03;;;;;;;;;;5283035;28;20024;-77
2023/06/28 14:59:42;;;;;;;19.00;15.95;;;;;;;;;;5281848;28;20259;-77
2023/06/28 15:02:13;;;;;;;19.70;15.85;;;;;;;;;;5283067;28;20024;-77
2023/06/28 15:04:44;;;;;;;19.42;15.65;;;;;;;;;;5281576;28;20017;-77
2023/06/28 15:07:15;;;;;;;20.83;15.85;;;;;;;;;;5282577;28;20115;-77